Time;durP1;ratioP1;P1;durP2;ratioP2;P2;SDS_P1;SDS_P2;PMS_P1;PMS_P2;Temp;Humidity;BMP_temperature;BMP_pressure;BME280_temperature;BME280_humidity;BME280_pressure;Samples;Min_cycle;Max_cycle;Signal;HPM_P1;HPM_P2
2022/08/27 00:02:34;;;;;;;10.67;8.33;;;22.40;99.90;;;;;;10473433;28;20212;-74
2022/08/27 00:07:34;;;;;;;10.87;8.60;;;22.40;99.90;;;;;;10474188;28;20354;-75
2022/08/27 00:12:35;;;;;;;9.90;7.63;;;22.40;99.90;;;;;;10475810;28;20649;-74
2022/08/27 00:17:36;;;;;;;9.43;8.37;;;22.40;99.90;;;;;;10466199;28;20231;-74
2022/08/27 00:22:37;;;;;;;10.03;7.70;;;22.40;99.90;;;;;;10479359;28;20233;-74
2022/08/27 00:27:38;;;;;;;9.93;8.23;;;22.30;99.90;;;;;;10467738;28;20624;-77
2022/08/27 00:32:39;;;;;;;10.57;7.53;;;22.30;99.90;;;;;;10469529;28;20216;-76
2022/08/27 00:37:40;;;;;;;13.73;8.87;;;22.30;99.90;;;;;;10481838;28;20227;-74
2022/08/27 00:42:44;;;;;;;10.13;7.63;;;22.20;99.90;;;;;;10475491;28;20230;-75
2022/08/27 00:47:53;;;;;;;11.53;7.30;;;22.20;99.90;;;;;;10475402;28;20428;-75
2022/08/27 00:52:59;;;;;;;9.27;7.67;;;22.20;99.90;;;;;;10476430;28;20220;-74
2022/08/27 00:58:09;;;;;;;10.77;7.67;;;22.20;99.90;;;;;;10481679;28;20228;-74
2022/08/27 01:03:09;;;;;;;8.67;7.30;;;22.10;99.90;;;;;;10474133;28;20227;-73
2022/08/27 01:08:23;;;;;;;13.77;7.73;;;22.10;99.90;;;;;;10472472;28;20219;-74
2022/08/27 01:13:28;;;;;;;7.77;6.67;;;22.10;99.90;;;;;;10473513;28;20226;-73
2022/08/27 01:18:32;;;;;;;9.83;7.70;;;22.00;99.90;;;;;;10478767;28;20280;-74
2022/08/27 01:23:43;;;;;;;9.40;6.90;;;22.00;99.90;;;;;;10471332;28;20224;-74
2022/08/27 01:28:44;;;;;;;11.07;7.10;;;22.00;99.90;;;;;;10468091;28;20219;-74
2022/08/27 01:33:57;;;;;;;9.23;6.70;;;22.00;99.90;;;;;;10470293;28;20246;-74
2022/08/27 01:38:58;;;;;;;9.07;6.83;;;22.00;99.90;;;;;;10475212;28;20211;-74
2022/08/27 01:43:58;;;;;;;9.47;6.77;;;22.00;99.90;;;;;;10476908;28;20308;-74
2022/08/27 01:48:59;;;;;;;9.67;6.67;;;21.90;99.90;;;;;;10466215;28;20294;-74
2022/08/27 01:54:00;;;;;;;10.60;6.57;;;21.90;99.90;;;;;;10479008;28;20262;-73
2022/08/27 01:59:00;;;;;;;10.90;6.47;;;22.00;99.90;;;;;;10470513;28;20212;-74
2022/08/27 02:04:01;;;;;;;11.30;6.60;;;22.00;99.90;;;;;;10477126;28;20306;-73
2022/08/27 02:09:02;;;;;;;8.33;6.50;;;21.90;99.90;;;;;;10474000;28;20658;-73
2022/08/27 02:14:03;;;;;;;9.33;6.63;;;21.90;99.90;;;;;;10472618;28;20318;-74
2022/08/27 02:19:04;;;;;;;9.70;6.33;;;21.80;99.90;;;;;;10466395;28;20208;-75
2022/08/27 02:24:05;;;;;;;7.53;6.60;;;21.70;99.90;;;;;;10472727;28;20698;-74
2022/08/27 02:29:06;;;;;;;8.30;6.70;;;21.60;99.90;;;;;;10469563;28;20702;-75
2022/08/27 02:34:08;;;;;;;9.53;7.00;;;21.60;99.90;;;;;;10467121;28;20233;-74
2022/08/27 02:39:09;;;;;;;9.27;7.57;;;21.50;99.90;;;;;;10476694;28;20637;-75
2022/08/27 02:44:10;;;;;;;11.83;7.33;;;21.50;99.90;;;;;;10470787;28;20774;-73
2022/08/27 02:49:11;;;;;;;11.17;6.93;;;21.50;99.90;;;;;;10468188;28;20312;-71
2022/08/27 02:54:11;;;;;;;14.00;7.77;;;21.50;99.90;;;;;;10462724;28;20262;-72
2022/08/27 02:59:12;;;;;;;12.47;7.17;;;21.60;99.90;;;;;;10469236;28;20238;-72
2022/08/27 03:04:13;;;;;;;9.60;6.93;;;21.50;99.90;;;;;;10470829;28;20314;-73
2022/08/27 03:09:13;;;;;;;9.93;7.13;;;21.50;99.90;;;;;;10478180;28;20314;-74
2022/08/27 03:14:14;;;;;;;11.10;7.47;;;21.50;99.90;;;;;;10486190;28;20699;-73
2022/08/27 03:19:14;;;;;;;10.10;7.50;;;21.50;99.90;;;;;;10475040;28;20228;-73
2022/08/27 03:24:15;;;;;;;8.10;6.80;;;21.50;99.90;;;;;;10475302;28;20581;-73
2022/08/27 03:29:16;;;;;;;9.03;7.27;;;21.50;99.90;;;;;;10471035;28;20617;-72
2022/08/27 03:34:17;;;;;;;8.93;7.60;;;21.50;99.90;;;;;;10484506;28;20224;-72
2022/08/27 03:39:18;;;;;;;8.93;7.47;;;21.50;99.90;;;;;;10468507;28;20216;-71
2022/08/27 03:44:18;;;;;;;8.07;6.63;;;21.40;99.90;;;;;;10474960;28;20227;-72
2022/08/27 03:49:20;;;;;;;10.73;7.20;;;21.40;99.90;;;;;;10480054;28;20562;-73
2022/08/27 03:54:21;;;;;;;9.40;6.80;;;21.40;99.90;;;;;;10474559;28;20318;-74
2022/08/27 03:59:22;;;;;;;9.83;7.50;;;21.30;99.90;;;;;;10478318;28;20745;-73
2022/08/27 04:04:26;;;;;;;8.07;7.27;;;21.30;99.90;;;;;;10477953;28;20308;-73
2022/08/27 04:09:27;;;;;;;11.80;7.70;;;21.30;99.90;;;;;;10472518;28;20216;-74
2022/08/27 04:14:27;;;;;;;8.77;7.00;;;21.30;99.90;;;;;;10481547;28;20223;-73
2022/08/27 04:19:31;;;;;;;7.60;6.80;;;21.30;99.90;;;;;;10480744;28;20254;-73
2022/08/27 04:24:38;;;;;;;10.73;7.73;;;21.30;99.90;;;;;;10474566;28;20211;-73
2022/08/27 04:29:39;;;;;;;12.93;9.07;;;21.30;99.90;;;;;;10470510;28;20212;-72
2022/08/27 04:34:40;;;;;;;13.83;7.37;;;21.30;99.90;;;;;;10467846;28;20228;-72
2022/08/27 04:39:41;;;;;;;9.33;7.43;;;21.30;99.90;;;;;;10479300;28;20643;-73
2022/08/27 04:44:41;;;;;;;11.80;8.07;;;21.30;99.90;;;;;;10471326;28;20250;-73
2022/08/27 04:49:42;;;;;;;9.57;7.00;;;21.30;99.90;;;;;;10469386;28;20786;-74
2022/08/27 04:54:43;;;;;;;10.37;7.77;;;21.40;99.90;;;;;;10473234;28;20235;-75
2022/08/27 04:59:44;;;;;;;11.37;7.57;;;21.40;99.90;;;;;;10474484;28;20207;-75
2022/08/27 05:04:44;;;;;;;10.03;7.97;;;21.40;99.90;;;;;;10480289;28;20654;-75
2022/08/27 05:09:45;;;;;;;11.33;8.17;;;21.40;99.90;;;;;;10474781;28;20216;-76
2022/08/27 05:14:46;;;;;;;10.93;8.30;;;21.40;99.90;;;;;;10480166;28;20235;-74
2022/08/27 05:19:47;;;;;;;15.53;9.03;;;21.40;99.90;;;;;;10478486;28;20219;-75
2022/08/27 05:24:50;;;;;;;11.80;8.47;;;21.50;99.90;;;;;;10474487;28;20614;-77
2022/08/27 05:29:51;;;;;;;9.13;7.07;;;21.50;99.90;;;;;;10478605;28;20215;-77
2022/08/27 05:34:51;;;;;;;16.23;8.00;;;21.60;99.90;;;;;;10475108;28;20238;-76
2022/08/27 05:39:52;;;;;;;11.53;8.43;;;21.70;99.90;;;;;;10472746;28;20254;-75
2022/08/27 05:44:53;;;;;;;11.37;8.57;;;21.70;99.90;;;;;;10469385;28;20577;-74
2022/08/27 05:49:53;;;;;;;8.67;6.63;;;21.60;99.90;;;;;;10470689;28;20224;-75
2022/08/27 05:54:54;;;;;;;11.43;7.63;;;21.60;99.90;;;;;;10465472;28;20603;-75
2022/08/27 06:05:14;;;;;;;9.17;7.50;;;21.70;99.90;;;;;;10467137;28;20876;-74
2022/08/27 06:10:14;;;;;;;12.13;8.20;;;21.80;99.90;;;;;;10467278;28;20298;-74
2022/08/27 06:15:15;;;;;;;10.73;7.60;;;21.80;99.90;;;;;;10473528;28;20212;-74
2022/08/27 06:20:16;;;;;;;11.70;7.83;;;21.80;99.90;;;;;;10470503;28;20180;-75
2022/08/27 06:25:16;;;;;;;11.80;7.73;;;21.80;99.90;;;;;;10475978;28;20556;-74
2022/08/27 06:30:17;;;;;;;9.00;7.03;;;21.90;99.90;;;;;;10463724;28;20253;-75
2022/08/27 06:35:18;;;;;;;9.90;6.70;;;21.90;99.90;;;;;;10461758;28;20250;-76
2022/08/27 06:40:18;;;;;;;10.33;6.50;;;22.00;99.90;;;;;;10471182;28;20188;-75
2022/08/27 06:45:19;;;;;;;9.27;6.70;;;22.00;99.90;;;;;;10476923;28;20581;-74
2022/08/27 06:50:20;;;;;;;9.60;6.60;;;22.10;99.90;;;;;;10484434;28;20342;-74
2022/08/27 06:55:20;;;;;;;10.97;6.30;;;22.20;99.90;;;;;;10476911;28;20212;-75
2022/08/27 07:00:21;;;;;;;9.23;5.83;;;22.30;99.90;;;;;;10484636;28;20218;-74
2022/08/27 07:05:21;;;;;;;8.63;7.30;;;22.30;99.90;;;;;;10483590;28;20195;-74
2022/08/27 07:10:23;;;;;;;10.17;6.40;;;22.40;99.90;;;;;;10480031;28;20191;-74
2022/08/27 07:15:24;;;;;;;16.70;7.03;;;22.40;99.90;;;;;;10481355;28;20318;-74
2022/08/27 07:20:24;;;;;;;12.50;5.97;;;22.40;99.90;;;;;;10476866;28;20282;-75
2022/08/27 07:25:25;;;;;;;8.43;5.80;;;22.40;99.90;;;;;;10486623;28;20219;-75
2022/08/27 07:30:26;;;;;;;11.07;6.50;;;22.30;99.90;;;;;;10475104;28;20223;-76
2022/08/27 07:35:27;;;;;;;10.73;6.87;;;22.30;99.90;;;;;;10484861;28;20230;-75
2022/08/27 07:40:28;;;;;;;14.50;7.60;;;22.30;99.90;;;;;;10483939;28;20230;-74
2022/08/27 07:45:29;;;;;;;12.90;6.07;;;22.40;99.90;;;;;;10477508;28;20227;-75
2022/08/27 07:50:32;;;;;;;7.80;6.70;;;22.90;99.90;;;;;;10475889;28;20220;-76
2022/08/27 07:55:36;;;;;;;9.27;5.73;;;23.30;99.90;;;;;;10472505;28;21100;-76
2022/08/27 08:00:39;;;;;;;10.53;6.67;;;23.60;99.90;;;;;;10474169;28;20220;-75
2022/08/27 08:05:43;;;;;;;11.33;6.83;;;23.60;99.90;;;;;;10475553;28;20220;-76
2022/08/27 08:10:46;;;;;;;7.80;6.33;;;23.70;99.90;;;;;;10478448;28;20220;-75
2022/08/27 08:15:48;;;;;;;9.40;5.93;;;24.10;99.90;;;;;;10459697;28;20790;-75
2022/08/27 08:20:48;;;;;;;7.30;5.23;;;25.00;99.90;;;;;;10481374;28;20245;-73
2022/08/27 08:25:49;;;;;;;7.80;5.67;;;26.70;99.90;;;;;;10476076;28;20228;-73
2022/08/27 08:30:51;;;;;;;5.87;4.33;;;27.30;98.10;;;;;;10483615;28;20218;-73
2022/08/27 08:35:53;;;;;;;7.10;5.00;;;28.00;96.70;;;;;;10472683;28;20259;-74
2022/08/27 08:40:54;;;;;;;7.13;4.70;;;28.70;92.90;;;;;;10460953;28;20215;-72
2022/08/27 08:45:58;;;;;;;6.97;5.07;;;28.40;92.70;;;;;;10467516;28;20227;-72
2022/08/27 08:51:22;;;;;;;8.73;5.10;;;28.30;92.00;;;;;;10465001;28;20298;-74
2022/08/27 08:56:42;;;;;;;7.40;4.37;;;27.90;93.10;;;;;;10458587;28;20306;-74
2022/08/27 09:01:44;;;;;;;7.70;5.10;;;29.20;90.60;;;;;;10480030;28;20222;-74
2022/08/27 09:06:53;;;;;;;7.10;4.47;;;28.90;88.30;;;;;;10472410;28;20238;-74
2022/08/27 09:11:58;;;;;;;5.30;4.40;;;28.50;90.20;;;;;;10474037;28;20228;-74
2022/08/27 09:17:00;;;;;;;7.30;4.80;;;28.00;90.60;;;;;;10469070;28;20264;-74
2022/08/27 09:22:14;;;;;;;8.67;5.10;;;27.60;91.20;;;;;;10472875;28;20639;-74
2022/08/27 09:27:15;;;;;;;9.30;5.37;;;27.30;91.80;;;;;;10471265;28;20217;-75
2022/08/27 09:32:20;;;;;;;8.83;5.20;;;26.70;92.70;;;;;;10476709;28;20229;-75
2022/08/27 09:37:30;;;;;;;6.53;4.70;;;26.60;93.10;;;;;;10472149;28;20283;-76
2022/08/27 09:42:47;;;;;;;7.63;5.10;;;27.10;92.50;;;;;;10459307;28;20277;-72
2022/08/27 09:47:53;;;;;;;7.07;4.73;;;27.10;91.50;;;;;;10469983;28;20225;-73
2022/08/27 09:52:57;;;;;;;7.37;5.53;;;27.00;92.00;;;;;;10470690;28;20228;-72
2022/08/27 09:58:02;;;;;;;6.37;4.90;;;26.70;92.20;;;;;;10466939;28;20237;-72
2022/08/27 10:03:05;;;;;;;7.40;4.97;;;26.40;92.90;;;;;;10473694;28;20689;-74
2022/08/27 10:08:27;;;;;;;7.73;4.80;;;25.90;94.20;;;;;;10478086;28;20230;-74
2022/08/27 10:13:52;;;;;;;8.33;5.37;;;25.80;94.70;;;;;;10471564;28;20316;-74
2022/08/27 10:19:34;;;;;;;6.47;4.70;;;26.00;94.40;;;;;;10466469;28;20688;-74
2022/08/27 10:24:51;;;;;;;6.43;4.40;;;26.80;92.90;;;;;;10458873;28;20226;-74
2022/08/27 10:30:00;;;;;;;5.10;4.60;;;27.60;91.30;;;;;;10464205;28;20213;-74
2022/08/27 10:35:21;;;;;;;5.60;4.53;;;28.10;90.20;;;;;;10476140;28;20224;-73
2022/08/27 10:40:30;;;;;;;4.67;4.23;;;28.50;87.70;;;;;;10477730;28;20226;-74
2022/08/27 10:45:43;;;;;;;6.90;4.30;;;28.70;86.40;;;;;;10470854;28;20305;-74
2022/08/27 10:50:57;;;;;;;6.97;4.93;;;29.00;83.30;;;;;;10463811;28;20265;-72
2022/08/27 10:56:27;;;;;;;6.73;4.70;;;28.40;85.60;;;;;;10469066;28;20258;-74
2022/08/27 11:01:31;;;;;;;7.57;4.60;;;28.30;85.50;;;;;;10468961;28;20233;-75
2022/08/27 11:07:04;;;;;;;6.67;4.57;;;28.50;84.70;;;;;;10470482;28;20613;-73
2022/08/27 11:12:12;;;;;;;5.03;4.53;;;28.20;85.60;;;;;;10452378;28;20230;-75
2022/08/27 11:17:22;;;;;;;6.90;4.37;;;28.30;84.50;;;;;;10471815;28;20238;-73
2022/08/27 11:22:37;;;;;;;8.30;4.47;;;28.40;84.40;;;;;;10475796;28;20230;-75
2022/08/27 11:27:39;;;;;;;7.30;4.30;;;28.40;84.40;;;;;;10460556;28;20402;-74
2022/08/27 11:32:59;;;;;;;5.30;4.00;;;28.70;81.90;;;;;;10477071;28;20226;-75
2022/08/27 11:38:33;;;;;;;6.77;4.53;;;28.60;81.20;;;;;;10475245;28;20238;-74
2022/08/27 11:43:36;;;;;;;6.70;4.53;;;28.40;81.50;;;;;;10489865;28;20226;-74
2022/08/27 11:48:42;;;;;;;6.13;4.10;;;28.20;81.90;;;;;;10462649;28;20297;-74
2022/08/27 11:53:56;;;;;;;4.63;3.93;;;28.30;82.10;;;;;;10468278;28;20418;-75
2022/08/27 11:59:20;;;;;;;6.63;4.20;;;28.40;81.70;;;;;;10475197;28;20617;-75
2022/08/27 12:04:29;;;;;;;6.47;4.03;;;28.40;81.10;;;;;;10476094;28;20233;-71
2022/08/27 12:09:45;;;;;;;4.10;3.60;;;28.40;80.90;;;;;;10467468;28;20226;-73
2022/08/27 12:15:13;;;;;;;4.87;4.37;;;28.10;82.60;;;;;;10450937;28;20235;-72
2022/08/27 12:21:05;;;;;;;4.63;3.87;;;28.30;80.70;;;;;;10467391;28;20711;-72
2022/08/27 12:26:23;;;;;;;4.87;3.97;;;28.30;81.50;;;;;;10468583;28;20997;-72
2022/08/27 12:31:24;;;;;;;5.23;3.70;;;28.80;80.80;;;;;;10475748;28;20231;-72
2022/08/27 12:36:26;;;;;;;4.57;4.07;;;29.50;78.00;;;;;;10480213;28;20280;-71
2022/08/27 12:41:38;;;;;;;4.77;4.20;;;29.40;75.00;;;;;;10474572;28;20220;-73
2022/08/27 12:46:52;;;;;;;5.27;4.77;;;29.50;74.80;;;;;;10463029;28;20227;-73
2022/08/27 12:51:54;;;;;;;5.27;4.20;;;29.10;75.50;;;;;;10465857;28;20224;-73
2022/08/27 12:57:01;;;;;;;4.47;3.90;;;29.40;74.90;;;;;;10467034;28;20315;-72
2022/08/27 13:02:25;;;;;;;5.60;4.20;;;29.60;73.70;;;;;;10466304;28;20598;-72
2022/08/27 13:07:28;;;;;;;6.00;3.63;;;29.40;73.80;;;;;;10469662;28;20222;-72
2022/08/27 13:12:28;;;;;;;4.87;4.47;;;28.80;75.20;;;;;;10466514;28;20836;-72
2022/08/27 13:17:30;;;;;;;5.07;4.20;;;28.50;74.90;;;;;;10474029;28;20318;-73
2022/08/27 13:22:37;;;;;;;7.30;4.90;;;28.40;75.80;;;;;;10476887;28;20222;-72
2022/08/27 13:27:38;;;;;;;7.07;4.80;;;27.80;77.30;;;;;;10467410;28;20287;-70
2022/08/27 13:32:39;;;;;;;7.53;5.13;;;27.50;78.40;;;;;;10474204;28;20225;-69
2022/08/27 13:37:43;;;;;;;5.67;4.87;;;27.40;79.20;;;;;;10469549;28;20638;-69
2022/08/27 13:42:44;;;;;;;6.90;4.93;;;27.40;79.70;;;;;;10471134;28;20226;-69
2022/08/27 13:47:47;;;;;;;5.33;4.83;;;27.60;79.50;;;;;;10477955;28;20236;-69
2022/08/27 13:58:16;;;;;;;7.17;5.10;;;27.70;79.40;;;;;;10461077;28;20315;-69
2022/08/27 14:03:33;;;;;;;8.13;5.60;;;27.60;78.40;;;;;;10469815;28;20245;-70
2022/08/27 14:08:35;;;;;;;7.60;5.20;;;27.60;78.60;;;;;;10469847;28;20220;-69
2022/08/27 14:13:42;;;;;;;6.67;4.60;;;27.80;78.90;;;;;;10480465;28;22243;-71
2022/08/27 14:19:01;;;;;;;6.50;4.63;;;27.90;79.20;;;;;;10462260;28;20696;-71
2022/08/27 14:24:02;;;;;;;5.23;4.70;;;27.90;79.20;;;;;;10460699;28;20271;-74
2022/08/27 14:29:03;;;;;;;6.13;4.50;;;27.90;78.80;;;;;;10469117;28;20329;-70
2022/08/27 14:34:04;;;;;;;8.63;4.80;;;27.80;78.90;;;;;;10473850;28;20835;-70
2022/08/27 14:39:06;;;;;;;5.83;4.67;;;27.70;78.80;;;;;;10466267;28;20201;-71
2022/08/27 14:44:07;;;;;;;9.20;4.67;;;27.50;79.60;;;;;;10466858;28;20231;-70
2022/08/27 14:49:13;;;;;;;6.07;4.20;;;27.20;80.80;;;;;;10469469;28;20968;-70
2022/08/27 14:54:14;;;;;;;5.30;4.27;;;27.20;81.50;;;;;;10465784;28;20694;-69
2022/08/27 14:59:15;;;;;;;4.93;4.43;;;27.30;80.80;;;;;;10472228;28;20221;-69
2022/08/27 15:04:16;;;;;;;5.27;4.57;;;27.40;80.10;;;;;;10466866;28;20625;-70
2022/08/27 15:09:17;;;;;;;6.33;4.83;;;27.30;79.90;;;;;;10468766;28;20261;-69
2022/08/27 15:14:44;;;;;;;5.57;4.63;;;27.40;80.30;;;;;;10486882;28;20693;-69
2022/08/27 15:19:45;;;;;;;4.93;4.37;;;27.50;81.60;;;;;;10468333;28;20228;-69
2022/08/27 15:24:52;;;;;;;6.10;4.47;;;27.50;82.10;;;;;;10482714;28;20224;-69
2022/08/27 15:29:52;;;;;;;4.57;4.17;;;27.60;82.50;;;;;;10472715;28;20226;-69
2022/08/27 15:34:54;;;;;;;5.40;4.60;;;27.50;82.40;;;;;;10484203;28;20224;-68
2022/08/27 15:39:55;;;;;;;5.97;4.20;;;27.30;82.80;;;;;;10476206;28;20319;-69
2022/08/27 15:44:56;;;;;;;5.50;4.20;;;27.20;84.40;;;;;;10476863;28;20310;-70
2022/08/27 15:49:56;;;;;;;7.60;4.13;;;27.10;84.40;;;;;;10471232;28;20220;-69
2022/08/27 15:54:57;;;;;;;5.43;4.73;;;27.00;84.40;;;;;;10474703;28;20245;-68
2022/08/27 15:59:57;;;;;;;4.90;4.40;;;26.90;84.80;;;;;;10471267;28;20736;-69
2022/08/27 16:04:58;;;;;;;7.37;4.57;;;26.80;85.10;;;;;;10474340;28;20229;-68
2022/08/27 16:09:59;;;;;;;5.23;4.70;;;26.60;85.40;;;;;;10477165;28;20225;-68
2022/08/27 16:14:59;;;;;;;5.73;5.07;;;26.50;86.40;;;;;;10470976;28;20226;-69
2022/08/27 16:20:00;;;;;;;7.63;5.17;;;26.40;87.90;;;;;;10475633;28;20225;-67
2022/08/27 16:25:03;;;;;;;5.60;5.00;;;26.40;89.00;;;;;;10480934;28;20221;-69
2022/08/27 16:30:05;;;;;;;5.20;4.73;;;26.50;88.70;;;;;;10473718;28;20230;-68
2022/08/27 16:35:07;;;;;;;5.10;4.50;;;26.30;88.90;;;;;;10467756;28;20285;-69
2022/08/27 16:40:09;;;;;;;6.67;4.53;;;26.10;89.90;;;;;;10477955;28;20179;-69
2022/08/27 16:45:10;;;;;;;6.37;4.53;;;26.00;90.30;;;;;;10466694;28;20311;-69
2022/08/27 16:55:31;;;;;;;5.83;4.57;;;25.60;91.90;;;;;;10470031;28;20228;-68
2022/08/27 17:00:32;;;;;;;6.93;4.93;;;25.30;92.70;;;;;;10479323;28;20218;-69
2022/08/27 17:05:32;;;;;;;8.13;5.80;;;25.10;93.00;;;;;;10472948;28;20572;-69
2022/08/27 17:10:45;;;;;;;6.37;5.77;;;24.80;95.80;;;;;;10463812;28;20227;-70
2022/08/27 17:15:47;;;;;;;6.83;5.47;;;24.40;97.50;;;;;;10462592;28;20339;-70
2022/08/27 17:20:49;;;;;;;11.37;7.53;;;24.20;99.60;;;;;;10472588;28;20221;-68
2022/08/27 17:25:50;;;;;;;7.73;6.97;;;23.90;99.90;;;;;;10472989;28;20294;-69
2022/08/27 17:30:50;;;;;;;7.10;6.40;;;23.80;99.90;;;;;;10475119;28;20368;-69
2022/08/27 17:35:51;;;;;;;6.00;5.40;;;23.60;99.90;;;;;;10463852;28;20297;-69
2022/08/27 17:40:53;;;;;;;9.00;5.30;;;23.50;99.90;;;;;;10470408;28;20230;-69
2022/08/27 17:45:54;;;;;;;5.50;5.00;;;23.40;99.90;;;;;;10475051;28;20231;-69
2022/08/27 17:50:54;;;;;;;5.63;5.00;;;23.40;99.90;;;;;;10457049;28;20207;-69
2022/08/27 17:55:55;;;;;;;5.07;4.57;;;23.40;99.90;;;;;;10463189;28;20232;-68
2022/08/27 18:00:55;;;;;;;5.07;4.40;;;23.30;99.90;;;;;;10475069;28;20303;-68
2022/08/27 18:05:56;;;;;;;6.03;4.67;;;23.20;99.90;;;;;;10472044;28;20297;-68
2022/08/27 18:10:57;;;;;;;5.03;4.53;;;23.10;99.90;;;;;;10461418;28;20230;-68
2022/08/27 18:15:57;;;;;;;5.73;4.67;;;23.00;99.90;;;;;;10456244;28;20236;-68
2022/08/27 18:20:58;;;;;;;4.30;3.90;;;22.90;99.90;;;;;;10475318;28;20231;-68
2022/08/27 18:25:59;;;;;;;4.80;3.77;;;22.90;99.90;;;;;;10468655;28;20259;-69
2022/08/27 18:31:02;;;;;;;5.33;4.03;;;22.80;99.90;;;;;;10470361;28;20794;-69
2022/08/27 18:36:03;;;;;;;4.40;3.77;;;22.70;99.90;;;;;;10473065;28;20272;-68
2022/08/27 18:41:06;;;;;;;6.00;4.63;;;22.70;99.90;;;;;;10471577;28;20233;-68
2022/08/27 18:46:06;;;;;;;6.40;4.23;;;22.60;99.90;;;;;;10480714;28;20222;-69
2022/08/27 18:51:10;;;;;;;6.40;4.07;;;22.50;99.90;;;;;;10484066;28;20609;-69
2022/08/27 18:56:17;;;;;;;5.17;3.50;;;22.40;99.90;;;;;;10476567;28;20317;-69
2022/08/27 19:01:23;;;;;;;6.90;3.70;;;22.40;99.90;;;;;;10475748;28;20223;-68
2022/08/27 19:06:24;;;;;;;7.03;3.60;;;22.30;99.90;;;;;;10481929;28;20246;-68
2022/08/27 19:11:25;;;;;;;5.97;3.97;;;22.20;99.90;;;;;;10475607;28;20694;-69
2022/08/27 19:16:52;;;;;;;6.20;4.13;;;22.20;99.90;;;;;;10475100;28;20348;-70
2022/08/27 19:21:58;;;;;;;7.63;3.90;;;22.20;99.90;;;;;;10461678;28;20318;-68
2022/08/27 19:26:59;;;;;;;5.50;4.50;;;22.20;99.90;;;;;;10482184;28;20258;-68
2022/08/27 19:31:59;;;;;;;8.83;3.97;;;22.20;99.90;;;;;;10474645;28;20235;-68
2022/08/27 19:37:01;;;;;;;4.07;3.67;;;22.20;99.90;;;;;;10466891;28;20235;-68
2022/08/27 19:42:03;;;;;;;8.27;4.10;;;22.20;99.90;;;;;;10475546;28;20690;-68
2022/08/27 19:47:06;;;;;;;9.43;4.00;;;22.20;99.90;;;;;;10466584;28;20234;-68
2022/08/27 19:52:07;;;;;;;8.00;3.57;;;22.20;99.90;;;;;;10477849;28;20623;-68
2022/08/27 19:57:07;;;;;;;6.27;3.60;;;22.10;99.90;;;;;;10482908;28;20325;-69
2022/08/27 20:02:09;;;;;;;6.00;3.63;;;22.20;99.90;;;;;;10478455;28;20223;-69
2022/08/27 20:07:09;;;;;;;5.30;3.83;;;22.20;99.90;;;;;;10467469;28;20678;-68
2022/08/27 20:12:12;;;;;;;7.40;3.90;;;22.10;99.90;;;;;;10470839;28;20215;-69
2022/08/27 20:17:13;;;;;;;5.43;3.80;;;22.10;99.90;;;;;;10474775;28;20323;-68
2022/08/27 20:22:16;;;;;;;4.73;3.60;;;22.00;99.90;;;;;;10479912;28;20639;-69
2022/08/27 20:27:17;;;;;;;6.70;4.20;;;21.80;99.90;;;;;;10475656;28;20230;-68
2022/08/27 20:32:19;;;;;;;6.97;3.60;;;21.70;99.90;;;;;;10479650;28;20234;-68
2022/08/27 20:37:19;;;;;;;7.87;3.80;;;21.60;99.90;;;;;;10480664;28;20720;-68
2022/08/27 20:42:20;;;;;;;7.23;3.70;;;21.70;99.90;;;;;;10474101;28;20211;-68
2022/08/27 20:47:23;;;;;;;5.10;3.30;;;21.60;99.90;;;;;;10477695;28;20226;-69
2022/08/27 20:52:24;;;;;;;4.53;3.30;;;21.50;99.90;;;;;;10481209;28;20222;-69
2022/08/27 20:57:24;;;;;;;5.00;3.67;;;21.50;99.90;;;;;;10476299;28;20226;-69
2022/08/27 21:02:27;;;;;;;4.70;3.10;;;21.40;99.90;;;;;;10469324;28;20254;-69
2022/08/27 21:07:28;;;;;;;5.13;3.50;;;21.40;99.90;;;;;;10469245;28;20222;-68
2022/08/27 21:12:29;;;;;;;5.10;3.10;;;21.30;99.90;;;;;;10473017;28;20238;-69
2022/08/27 21:17:30;;;;;;;8.87;3.23;;;21.40;99.90;;;;;;10478914;28;20226;-68
2022/08/27 21:22:31;;;;;;;4.73;3.33;;;21.30;99.90;;;;;;10472395;28;20223;-69
2022/08/27 21:27:35;;;;;;;4.33;3.23;;;21.30;99.90;;;;;;10479845;28;20613;-69
2022/08/27 21:32:36;;;;;;;4.43;3.40;;;21.20;99.90;;;;;;10471370;28;20229;-68
2022/08/27 21:37:36;;;;;;;5.50;3.40;;;21.20;99.90;;;;;;10471349;28;20223;-69
2022/08/27 21:42:37;;;;;;;5.23;3.20;;;21.20;99.90;;;;;;10457003;28;20219;-69
2022/08/27 21:47:38;;;;;;;7.33;3.60;;;21.10;99.90;;;;;;10471454;28;20226;-69
2022/08/27 21:52:38;;;;;;;5.10;3.43;;;21.00;99.90;;;;;;10472775;28;20253;-69
2022/08/27 21:57:39;;;;;;;4.73;3.20;;;21.00;99.90;;;;;;10468781;28;20238;-69
2022/08/27 22:02:40;;;;;;;3.47;2.90;;;21.00;99.90;;;;;;10469359;28;20239;-69
2022/08/27 22:07:40;;;;;;;6.30;3.40;;;21.00;99.90;;;;;;10471905;28;20227;-69
2022/08/27 22:12:41;;;;;;;4.23;3.17;;;21.00;99.90;;;;;;10471625;28;20231;-69
2022/08/27 22:17:41;;;;;;;5.33;3.53;;;21.00;99.90;;;;;;10476393;28;20242;-69
2022/08/27 22:22:42;;;;;;;6.60;3.40;;;20.90;99.90;;;;;;10468351;28;20600;-68
2022/08/27 22:27:43;;;;;;;4.87;3.10;;;20.90;99.90;;;;;;10471614;28;20693;-68
2022/08/27 22:32:44;;;;;;;4.47;3.33;;;20.80;99.90;;;;;;10471659;28;20230;-68
2022/08/27 22:37:44;;;;;;;5.17;3.30;;;20.70;99.90;;;;;;10476675;28;20237;-68
2022/08/27 22:42:45;;;;;;;4.50;3.17;;;20.70;99.90;;;;;;10469849;28;20571;-69
2022/08/27 22:47:46;;;;;;;4.97;3.30;;;20.60;99.90;;;;;;10472492;28;20226;-69
2022/08/27 22:52:48;;;;;;;5.63;3.30;;;20.70;99.90;;;;;;10468839;28;20691;-69
2022/08/27 22:57:51;;;;;;;6.60;3.10;;;20.70;99.90;;;;;;10464738;28;20310;-68
2022/08/27 23:02:52;;;;;;;7.90;3.23;;;20.60;99.90;;;;;;10471394;28;20245;-68
2022/08/27 23:07:53;;;;;;;7.03;3.70;;;20.60;99.90;;;;;;10475120;28;20327;-68
2022/08/27 23:12:55;;;;;;;6.30;3.10;;;20.50;99.90;;;;;;10467666;28;20218;-69
2022/08/27 23:17:56;;;;;;;5.83;3.13;;;20.50;99.90;;;;;;10460744;28;20251;-69
2022/08/27 23:22:56;;;;;;;8.47;3.60;;;20.40;99.90;;;;;;10466817;28;20216;-68
2022/08/27 23:27:57;;;;;;;6.10;3.27;;;20.30;99.90;;;;;;10469580;28;20229;-69
2022/08/27 23:32:57;;;;;;;5.80;3.57;;;20.30;99.90;;;;;;10474012;28;20273;-69
2022/08/27 23:37:58;;;;;;;5.90;3.33;;;20.30;99.90;;;;;;10474922;28;20277;-68
2022/08/27 23:42:59;;;;;;;4.87;3.30;;;20.30;99.90;;;;;;10470031;28;20225;-69
2022/08/27 23:47:59;;;;;;;6.40;3.40;;;20.20;99.90;;;;;;10465612;28;20582;-69
2022/08/27 23:53:01;;;;;;;4.43;3.27;;;20.20;99.90;;;;;;10480946;28;20241;-69
2022/08/27 23:58:02;;;;;;;4.33;3.20;;;20.20;99.90;;;;;;10478400;28;20245;-69
